Time;durP1;ratioP1;P1;durP2;ratioP2;P2;SDS_P1;SDS_P2;PMS_P1;PMS_P2;Temp;Humidity;BMP_temperature;BMP_pressure;BME280_temperature;BME280_humidity;BME280_pressure;Samples;Min_cycle;Max_cycle;Signal;HPM_P1;HPM_P2
2023/08/29 00:01:02;;;;;;;2.33;2.13;;;12.50;51.10;;;;;;5045673;28;20128;-85
2023/08/29 00:03:28;;;;;;;;;;;12.50;50.50;;;;;;5015950;28;20041;-85
2023/08/29 00:06:04;;;;;;;1.50;1.40;;;12.40;57.60;;;;;;5016200;28;19921;-85
2023/08/29 00:08:30;;;;;;;1.95;1.85;;;12.40;51.70;;;;;;5015317;28;20488;-85
2023/08/29 00:10:59;;;;;;;3.60;1.73;;;12.40;50.40;;;;;;5032612;28;20408;-85
2023/08/29 00:13:25;;;;;;;1.75;1.65;;;12.40;50.70;;;;;;5015432;28;20111;-85
2023/08/29 00:15:51;;;;;;;2.60;2.15;;;12.40;51.30;;;;;;5015547;28;20124;-85
2023/08/29 00:18:19;;;;;;;824.33;293.77;;;12.40;51.90;;;;;;4999336;28;20048;-84
2023/08/29 00:20:45;;;;;;;2.25;1.40;;;12.40;52.80;;;;;;5035413;28;20443;-84
2023/08/29 00:23:11;;;;;;;691.15;156.50;;;12.40;51.00;;;;;;5020716;28;20049;-85
2023/08/29 00:25:37;;;;;;;274.93;67.60;;;12.30;47.90;;;;;;5028381;28;20099;-84
2023/08/29 00:28:03;;;;;;;2.88;1.85;;;12.30;46.30;;;;;;5040540;28;20076;-84
2023/08/29 00:30:34;;;;;;;1.60;1.50;;;12.20;45.40;;;;;;5002000;28;20077;-85
2023/08/29 00:32:59;;;;;;;1.88;1.73;;;12.20;44.40;;;;;;5025670;28;20050;-85
2023/08/29 00:35:25;;;;;;;1.77;1.57;;;12.10;45.20;;;;;;5042109;28;20106;-84
2023/08/29 00:37:51;;;;;;;2.30;1.60;;;12.10;46.70;;;;;;5050053;28;20049;-85
2023/08/29 00:40:17;;;;;;;2.77;1.83;;;12.10;48.50;;;;;;5039352;28;20440;-83
2023/08/29 00:42:42;;;;;;;1.65;1.55;;;12.00;48.20;;;;;;5040690;28;20037;-84
2023/08/29 00:45:08;;;;;;;2.60;1.63;;;12.00;47.60;;;;;;5023822;28;20072;-84
2023/08/29 00:47:34;;;;;;;2.95;1.88;;;11.90;45.40;;;;;;5029742;28;20109;-85
2023/08/29 00:50:00;;;;;;;2.93;1.90;;;11.90;45.30;;;;;;5029309;28;20049;-85
2023/08/29 00:52:26;;;;;;;3.28;2.00;;;11.90;47.40;;;;;;5020272;28;20476;-84
2023/08/29 00:54:52;;;;;;;2.97;2.30;;;11.90;48.60;;;;;;5038207;28;20096;-85
2023/08/29 00:57:17;;;;;;;2.17;1.95;;;11.90;50.60;;;;;;5028591;28;20295;-84
2023/08/29 00:59:43;;;;;;;1.93;1.83;;;11.90;51.70;;;;;;5023033;28;20044;-85
2023/08/29 01:02:10;;;;;;;2.00;1.85;;;11.90;51.90;;;;;;4999477;28;20551;-85
2023/08/29 01:04:35;;;;;;;2.55;1.85;;;11.90;52.20;;;;;;4998924;28;20365;-85
2023/08/29 01:07:01;;;;;;;2.73;2.47;;;11.80;51.50;;;;;;5028919;28;20044;-85
2023/08/29 01:09:27;;;;;;;5.22;1.70;;;11.80;50.40;;;;;;5017525;28;20087;-85
2023/08/29 01:12:15;;;;;;;1.63;1.53;;;11.80;49.30;;;;;;5031569;28;20090;-85
2023/08/29 01:14:45;;;;;;;;;;;11.70;50.00;;;;;;5026045;28;20040;-85
2023/08/29 01:17:25;;;;;;;1132.22;150.50;;;11.60;58.90;;;;;;5021030;28;19921;-85
2023/08/29 01:19:52;;;;;;;3.28;2.03;;;11.70;55.30;;;;;;5035696;28;20038;-85
2023/08/29 01:22:24;;;;;;;3.13;2.05;;;11.60;55.60;;;;;;5045586;28;20040;-85
2023/08/29 01:25:04;;;;;;;3.67;2.35;;;11.90;56.20;;;;;;5029330;28;20438;-84
2023/08/29 01:27:31;;;;;;;2.70;2.50;;;11.70;56.20;;;;;;5043247;28;21335;-84
2023/08/29 01:29:57;;;;;;;2.72;1.60;;;11.60;56.20;;;;;;5029999;28;20044;-84
2023/08/29 01:32:25;;;;;;;2.60;1.85;;;11.60;57.10;;;;;;5019456;28;20046;-84
2023/08/29 01:34:52;;;;;;;3.88;2.08;;;11.60;57.70;;;;;;5029793;28;20037;-84
2023/08/29 01:37:17;;;;;;;;;;;11.60;56.20;;;;;;5025714;28;20057;-86
2023/08/29 01:39:43;;;;;;;2.28;1.75;;;11.50;65.50;;;;;;5041188;28;19970;-85
2023/08/29 01:42:09;;;;;;;1.80;1.60;;;11.50;58.90;;;;;;4989366;28;20052;-85
2023/08/29 01:44:34;;;;;;;2.00;1.90;;;11.50;58.90;;;;;;5041412;28;20056;-85
2023/08/29 01:47:00;;;;;;;2.97;1.90;;;11.50;59.00;;;;;;5015179;28;20381;-85
2023/08/29 01:49:26;;;;;;;3.50;1.87;;;11.40;58.10;;;;;;5051389;28;20037;-84
2023/08/29 01:51:52;;;;;;;1.70;1.60;;;11.40;57.10;;;;;;5016321;28;20124;-85
2023/08/29 01:54:18;;;;;;;1.93;1.83;;;11.40;56.00;;;;;;5034571;28;20132;-85
2023/08/29 01:56:45;;;;;;;6.73;2.10;;;11.30;55.50;;;;;;5017564;28;20338;-84
2023/08/29 01:59:11;;;;;;;2.72;1.70;;;11.30;54.70;;;;;;5018142;28;20103;-85
2023/08/29 02:01:38;;;;;;;1.60;1.50;;;11.30;53.80;;;;;;5024941;28;20046;-84
2023/08/29 02:04:04;;;;;;;2.22;1.67;;;11.30;51.90;;;;;;5045354;28;20531;-85
2023/08/29 02:06:30;;;;;;;1.90;1.80;;;11.20;50.30;;;;;;5013537;28;20093;-85
2023/08/29 02:08:55;;;;;;;1.53;1.43;;;11.20;48.60;;;;;;5033099;28;20356;-85
2023/08/29 02:11:21;;;;;;;1.40;1.30;;;11.10;47.60;;;;;;5012397;28;20037;-85
2023/08/29 02:13:47;;;;;;;1.40;1.20;;;11.10;48.00;;;;;;5018521;28;20041;-85
2023/08/29 02:16:12;;;;;;;5.00;1.73;;;11.10;49.60;;;;;;5053894;28;20060;-85
2023/08/29 02:18:39;;;;;;;5.63;1.70;;;11.00;49.70;;;;;;5034405;28;20107;-85
2023/08/29 02:21:04;;;;;;;6.68;2.25;;;10.90;50.20;;;;;;5039016;28;20068;-85
2023/08/29 02:23:31;;;;;;;7.43;2.33;;;10.90;51.40;;;;;;5034803;28;20041;-84
2023/08/29 02:26:03;;;;;;;1.88;1.40;;;10.90;53.40;;;;;;5020435;28;20503;-85
2023/08/29 02:28:35;;;;;;;1.60;1.50;;;11.00;56.80;;;;;;5034831;28;20116;-85
2023/08/29 02:31:09;;;;;;;2.20;1.58;;;11.00;57.30;;;;;;5029584;28;20128;-85
2023/08/29 02:33:37;;;;;;;1.50;1.40;;;11.00;57.10;;;;;;5034904;28;20095;-85
2023/08/29 02:36:06;;;;;;;2.85;1.42;;;11.00;56.30;;;;;;5006247;28;20049;-85
2023/08/29 02:38:33;;;;;;;1.65;1.55;;;11.00;55.70;;;;;;5049226;28;20488;-84
2023/08/29 02:40:58;;;;;;;2.92;1.67;;;10.90;55.70;;;;;;5018668;28;20049;-85
2023/08/29 02:43:25;;;;;;;1.73;1.63;;;10.90;55.50;;;;;;5017559;28;20506;-85
2023/08/29 02:45:51;;;;;;;1.83;1.73;;;10.90;55.50;;;;;;5020087;28;20052;-84
2023/08/29 02:48:16;;;;;;;1.70;1.60;;;10.90;55.60;;;;;;5048569;28;20049;-84
2023/08/29 02:50:42;;;;;;;2.13;1.93;;;10.90;55.70;;;;;;5038009;28;20084;-85
2023/08/29 02:53:08;;;;;;;2.53;1.70;;;10.90;56.00;;;;;;5032484;28;20041;-85
2023/08/29 02:55:34;;;;;;;3.70;1.60;;;10.90;56.50;;;;;;5015983;28;20307;-84
2023/08/29 02:57:59;;;;;;;1.67;1.57;;;10.90;56.60;;;;;;5053004;28;20037;-84
2023/08/29 03:00:25;;;;;;;1.83;1.37;;;10.90;55.90;;;;;;5052921;28;20367;-85
2023/08/29 03:02:51;;;;;;;1.47;1.37;;;10.80;55.30;;;;;;5033422;28;20094;-84
2023/08/29 03:05:16;;;;;;;1.60;1.50;;;10.80;55.70;;;;;;5052874;28;20084;-84
2023/08/29 03:07:42;;;;;;;1.20;1.10;;;10.80;55.70;;;;;;5051344;28;20041;-84
2023/08/29 03:10:08;;;;;;;2.17;1.93;;;10.70;55.90;;;;;;5042805;28;20045;-84
2023/08/29 03:12:35;;;;;;;1.88;1.40;;;10.70;55.30;;;;;;5018300;28;20407;-85
2023/08/29 03:15:00;;;;;;;2.13;1.55;;;10.60;56.30;;;;;;5028166;28;20045;-85
2023/08/29 03:17:26;;;;;;;1.90;1.40;;;10.60;56.00;;;;;;5036740;28;20099;-85
2023/08/29 03:19:52;;;;;;;2.07;1.50;;;10.60;55.80;;;;;;5053662;28;20098;-85
2023/08/29 03:22:17;;;;;;;3.63;1.50;;;10.60;56.10;;;;;;5020239;28;20075;-85
2023/08/29 03:24:46;;;;;;;1.20;1.20;;;10.60;56.80;;;;;;5046396;28;20052;-85
2023/08/29 03:27:13;;;;;;;3.80;1.60;;;10.60;58.00;;;;;;5047136;28;20076;-85
2023/08/29 03:29:39;;;;;;;1.60;1.50;;;10.60;58.10;;;;;;5043704;28;20037;-83
2023/08/29 03:32:05;;;;;;;;;;;10.60;58.40;;;;;;5041003;28;20492;-85
2023/08/29 03:34:31;;;;;;;1.77;1.65;;;10.50;63.10;;;;;;5010361;28;19928;-85
2023/08/29 03:36:56;;;;;;;2.43;2.23;;;10.50;58.80;;;;;;5032077;28;20222;-84
2023/08/29 03:39:22;;;;;;;1.70;1.40;;;10.50;60.00;;;;;;5032293;28;20098;-85
2023/08/29 03:41:48;;;;;;;2.77;1.27;;;10.50;60.20;;;;;;5048413;28;20046;-84
2023/08/29 03:44:13;;;;;;;1.73;1.30;;;10.50;60.30;;;;;;5024261;28;20056;-85
2023/08/29 03:46:39;;;;;;;1.63;1.53;;;10.50;57.30;;;;;;5019564;28;20057;-84
2023/08/29 03:49:05;;;;;;;3.20;1.67;;;10.40;56.20;;;;;;5040175;28;20052;-84
2023/08/29 03:51:30;;;;;;;1.50;1.40;;;10.40;56.90;;;;;;5002581;28;20049;-85
2023/08/29 03:53:56;;;;;;;2.57;1.90;;;10.30;58.10;;;;;;5039651;28;20475;-85
2023/08/29 03:56:22;;;;;;;1.65;1.55;;;10.30;58.30;;;;;;5032884;28;20041;-85
2023/08/29 03:58:49;;;;;;;2.30;1.85;;;10.30;58.00;;;;;;5049400;28;20040;-85
2023/08/29 04:01:15;;;;;;;2.10;1.90;;;10.30;59.70;;;;;;4999601;28;20048;-84
2023/08/29 04:03:41;;;;;;;3.35;2.35;;;10.30;61.00;;;;;;5033358;28;20052;-84
2023/08/29 04:06:07;;;;;;;2.30;1.92;;;10.40;62.30;;;;;;5023769;28;20120;-85
2023/08/29 04:08:33;;;;;;;2.70;1.90;;;10.30;62.80;;;;;;5033248;28;20132;-84
2023/08/29 04:10:59;;;;;;;2.03;1.83;;;10.40;63.10;;;;;;5033601;28;20042;-84
2023/08/29 04:13:25;;;;;;;1.90;1.75;;;10.30;63.30;;;;;;5016572;28;20563;-84
2023/08/29 04:15:50;;;;;;;2.13;1.93;;;10.30;62.60;;;;;;5041773;28;20125;-84
2023/08/29 04:18:16;;;;;;;3.30;2.00;;;10.30;61.50;;;;;;5034274;28;20095;-84
2023/08/29 04:20:43;;;;;;;6.20;2.67;;;10.30;61.30;;;;;;5026578;28;20127;-85
2023/08/29 04:23:10;;;;;;;3.05;2.15;;;10.20;62.60;;;;;;5021640;28;20052;-84
2023/08/29 04:25:36;;;;;;;2.45;2.00;;;10.20;62.90;;;;;;5029486;28;20040;-85
2023/08/29 04:28:05;;;;;;;4.53;2.65;;;10.30;63.60;;;;;;5014919;28;20049;-84
2023/08/29 04:30:31;;;;;;;2.85;1.92;;;10.30;64.80;;;;;;5000134;28;20396;-85
2023/08/29 04:32:59;;;;;;;4.10;2.10;;;10.30;65.70;;;;;;5016005;28;20045;-84
2023/08/29 04:35:25;;;;;;;2.13;1.92;;;10.30;65.90;;;;;;5030749;28;20063;-84
2023/08/29 04:37:51;;;;;;;3.70;2.23;;;10.30;65.00;;;;;;5049968;28;20045;-84
2023/08/29 04:40:18;;;;;;;2.30;1.98;;;10.30;64.10;;;;;;5020804;28;20412;-84
2023/08/29 04:42:44;;;;;;;2.97;2.75;;;10.20;63.90;;;;;;5015612;28;20041;-84
2023/08/29 04:45:11;;;;;;;2.50;1.75;;;10.20;66.00;;;;;;5036942;28;20139;-84
2023/08/29 04:47:37;;;;;;;;;;;10.20;68.20;;;;;;5040045;28;20091;-85
2023/08/29 04:50:03;;;;;;;3.28;2.05;;;10.20;72.00;;;;;;5021140;28;20381;-84
2023/08/29 04:52:29;;;;;;;2.92;2.38;;;10.20;67.60;;;;;;5042845;28;20499;-84
2023/08/29 04:54:55;;;;;;;2.15;1.95;;;10.20;67.60;;;;;;5045160;28;20068;-84
2023/08/29 04:57:21;;;;;;;2.33;1.92;;;10.20;68.40;;;;;;5032746;28;20052;-84
2023/08/29 04:59:47;;;;;;;3.50;2.13;;;10.20;68.20;;;;;;5007886;28;20050;-84
2023/08/29 05:02:14;;;;;;;5.60;1.90;;;10.20;69.20;;;;;;5011989;28;20052;-84
2023/08/29 05:04:42;;;;;;;;;;;10.20;71.40;;;;;;5023925;28;20049;-84
2023/08/29 05:07:08;;;;;;;3.45;2.13;;;10.10;76.30;;;;;;5024277;28;19921;-84
2023/08/29 05:09:33;;;;;;;1.85;1.60;;;10.10;71.00;;;;;;5021895;28;20048;-85
2023/08/29 05:11:59;;;;;;;1.93;1.73;;;10.20;71.50;;;;;;5048667;28;20041;-85
2023/08/29 05:14:25;;;;;;;3.20;1.60;;;10.10;72.80;;;;;;5026057;28;20046;-85
2023/08/29 05:16:51;;;;;;;4.80;2.43;;;10.20;74.10;;;;;;5041841;28;20045;-84
2023/08/29 05:19:16;;;;;;;2.70;1.70;;;10.20;74.30;;;;;;5017015;28;20057;-85
2023/08/29 05:21:42;;;;;;;2.07;1.73;;;10.20;73.80;;;;;;5020971;28;20045;-85
2023/08/29 05:24:08;;;;;;;2.90;1.90;;;10.20;74.00;;;;;;5023277;28;20537;-85
2023/08/29 05:26:33;;;;;;;2.63;1.73;;;10.30;73.60;;;;;;5049037;28;20040;-85
2023/08/29 05:28:59;;;;;;;2.33;2.07;;;10.30;73.30;;;;;;5042785;28;20087;-85
2023/08/29 05:31:25;;;;;;;2.20;1.87;;;10.30;74.00;;;;;;5032252;28;20091;-85
2023/08/29 05:33:51;;;;;;;4.50;1.80;;;10.30;73.70;;;;;;5029362;28;20459;-85
2023/08/29 05:36:16;;;;;;;3.13;1.83;;;10.30;73.40;;;;;;5023202;28;20072;-85
2023/08/29 05:38:42;;;;;;;2.93;1.53;;;10.30;75.20;;;;;;5028352;28;20056;-86
2023/08/29 05:41:08;;;;;;;2.03;1.87;;;10.30;75.00;;;;;;5020164;28;20049;-87
2023/08/29 05:43:34;;;;;;;2.50;2.03;;;10.30;75.90;;;;;;5027353;28;20045;-88
2023/08/29 05:46:00;;;;;;;2.03;1.87;;;10.30;77.00;;;;;;5017546;28;20360;-87
2023/08/29 05:48:25;;;;;;;2.70;2.30;;;10.30;76.80;;;;;;5032135;28;20484;-87
2023/08/29 05:50:51;;;;;;;4.47;2.20;;;10.40;77.30;;;;;;5048268;28;20048;-88
2023/08/29 05:53:18;;;;;;;3.93;2.20;;;10.40;77.50;;;;;;5037080;28;20438;-86
2023/08/29 05:55:44;;;;;;;3.40;2.33;;;10.50;78.00;;;;;;5018664;28;20650;-87
2023/08/29 05:58:10;;;;;;;4.47;2.17;;;10.50;77.60;;;;;;5013513;28;20130;-88
2023/08/29 06:00:37;;;;;;;2.83;2.20;;;10.50;77.20;;;;;;5057743;28;20494;-85
2023/08/29 06:03:04;;;;;;;2.60;2.22;;;10.60;78.40;;;;;;5043397;28;20350;-86
2023/08/29 06:05:31;;;;;;;;;;;10.60;78.10;;;;;;5029175;28;20060;-87
2023/08/29 06:08:00;;;;;;;3.60;2.20;;;10.60;81.90;;;;;;5034952;28;19921;-84
2023/08/29 06:10:26;;;;;;;2.22;2.03;;;10.60;78.20;;;;;;5025671;28;20049;-86
2023/08/29 06:12:52;;;;;;;2.47;1.95;;;10.70;79.40;;;;;;5055904;28;20041;-86
2023/08/29 06:15:18;;;;;;;2.47;1.90;;;10.70;80.20;;;;;;5037664;28;20294;-87
2023/08/29 06:17:43;;;;;;;1.70;1.60;;;10.80;81.30;;;;;;5020328;28;20056;-88
2023/08/29 06:20:12;;;;;;;3.60;2.10;;;10.90;81.50;;;;;;5003058;28;20120;-89
2023/08/29 06:22:38;;;;;;;3.92;2.15;;;11.10;82.00;;;;;;5015485;28;20045;-90
2023/08/29 06:25:04;;;;;;;2.55;2.35;;;11.30;83.20;;;;;;5033501;28;20400;-88
2023/08/29 06:27:30;;;;;;;2.72;1.95;;;11.50;82.80;;;;;;5028115;28;20064;-88
2023/08/29 06:29:56;;;;;;;2.25;2.05;;;11.70;83.70;;;;;;5025231;28;20531;-88
2023/08/29 06:32:22;;;;;;;3.10;2.25;;;12.00;85.70;;;;;;5050829;28;20044;-89
2023/08/29 06:34:48;;;;;;;4.43;2.90;;;12.30;86.80;;;;;;5009316;28;20091;-89
2023/08/29 06:37:14;;;;;;;3.10;2.80;;;12.70;87.90;;;;;;5012394;28;20050;-90
2023/08/29 06:39:40;;;;;;;5.28;2.63;;;13.00;85.90;;;;;;5024193;28;20523;-90
2023/08/29 06:42:06;;;;;;;3.10;2.58;;;13.30;84.10;;;;;;5033163;28;20041;-89
2023/08/29 06:44:32;;;;;;;2.92;2.72;;;13.60;82.80;;;;;;5027115;28;20048;-86
2023/08/29 06:46:57;;;;;;;2.42;2.22;;;14.00;82.20;;;;;;5023461;28;20165;-86
2023/08/29 06:49:23;;;;;;;2.90;2.60;;;14.40;79.70;;;;;;5016581;28;21259;-85
2023/08/29 06:51:50;;;;;;;2.45;2.20;;;15.00;77.00;;;;;;5037416;28;20041;-86
2023/08/29 06:54:15;;;;;;;3.05;2.47;;;15.50;70.20;;;;;;5013325;28;20052;-86
2023/08/29 06:56:41;;;;;;;2.70;2.20;;;15.90;63.10;;;;;;5035853;28;20041;-86
2023/08/29 06:59:07;;;;;;;2.35;2.15;;;16.30;58.60;;;;;;5017983;28;20048;-86
2023/08/29 07:01:33;;;;;;;1.80;1.70;;;16.70;52.40;;;;;;5023713;28;20076;-86
2023/08/29 07:04:00;;;;;;;1.92;1.80;;;17.10;47.70;;;;;;5034461;28;20036;-86
2023/08/29 07:06:26;;;;;;;2.75;1.60;;;17.50;36.00;;;;;;5027757;28;20044;-85
2023/08/29 07:08:51;;;;;;;3.03;2.00;;;17.80;23.90;;;;;;5004955;28;20138;-86
2023/08/29 07:11:17;;;;;;;2.15;1.65;;;18.10;16.20;;;;;;5029974;28;20041;-86
2023/08/29 07:13:43;;;;;;;2.38;1.92;;;18.40;13.60;;;;;;5010832;28;20565;-87
2023/08/29 07:16:09;;;;;;;2.72;1.88;;;18.60;9.20;;;;;;5013929;28;20051;-86
2023/08/29 07:18:34;;;;;;;1.98;1.77;;;18.70;1.00;;;;;;5046217;28;20049;-86
2023/08/29 07:21:01;;;;;;;2.35;2.08;;;18.70;1.00;;;;;;5026599;28;20050;-84
2023/08/29 07:23:26;;;;;;;;;;;18.70;1.00;;;;;;5006271;28;20080;-84
2023/08/29 07:25:53;;;;;;;2.03;1.83;;;18.60;1.00;;;;;;5017921;28;20383;-84
2023/08/29 07:28:19;;;;;;;2.45;2.03;;;17.60;1.00;;;;;;5045851;28;20041;-85
2023/08/29 07:30:47;;;;;;;2.92;2.20;;;18.50;1.00;;;;;;5025339;28;20133;-84
2023/08/29 07:33:14;;;;;;;4.00;1.80;;;18.40;1.00;;;;;;5023140;28;20136;-83
2023/08/29 07:35:40;;;;;;;2.15;1.95;;;18.30;1.00;;;;;;5039704;28;20487;-83
2023/08/29 07:38:07;;;;;;;3.13;1.83;;;18.30;1.00;;;;;;4995338;28;20058;-83
2023/08/29 07:40:33;;;;;;;3.30;2.10;;;18.20;1.00;;;;;;5013091;28;20053;-84
2023/08/29 07:43:04;;;;;;;3.60;2.13;;;18.20;1.00;;;;;;5010015;28;20046;-82
2023/08/29 07:45:31;;;;;;;4.43;1.95;;;18.20;1.00;;;;;;5009506;28;20570;-82
2023/08/29 07:47:57;;;;;;;2.53;1.40;;;18.10;1.80;;;;;;4996975;28;20088;-82
2023/08/29 07:50:23;;;;;;;2.17;1.98;;;18.10;1.00;;;;;;4994158;28;20038;-82
2023/08/29 07:52:48;;;;;;;4.88;2.35;;;18.10;2.30;;;;;;4998426;28;20546;-82
2023/08/29 07:55:14;;;;;;;2.13;1.85;;;18.00;4.90;;;;;;4985737;28;20054;-82
2023/08/29 07:57:40;;;;;;;2.90;1.67;;;18.00;6.40;;;;;;5010192;28;20046;-83
2023/08/29 08:00:09;;;;;;;4.40;1.60;;;17.90;8.90;;;;;;4996924;28;20061;-82
2023/08/29 08:02:38;;;;;;;3.10;1.70;;;17.80;12.80;;;;;;5000428;28;20089;-82
2023/08/29 08:05:12;;;;;;;2.13;1.65;;;17.70;13.50;;;;;;5008030;28;20548;-81
2023/08/29 08:07:39;;;;;;;3.50;1.95;;;17.70;13.40;;;;;;5004968;28;20046;-83
2023/08/29 08:10:05;;;;;;;3.10;1.60;;;17.70;15.50;;;;;;4992412;28;20058;-84
2023/08/29 08:12:31;;;;;;;;;;;17.70;15.50;;;;;;4992420;28;20488;-83
2023/08/29 08:14:57;;;;;;;15.80;2.78;;;17.70;25.00;;;;;;5005781;28;19957;-84
2023/08/29 08:17:23;;;;;;;2.50;1.75;;;17.70;19.50;;;;;;5003841;28;20076;-84
2023/08/29 08:19:48;;;;;;;2.42;1.90;;;17.80;19.70;;;;;;4993877;28;20492;-84
2023/08/29 08:22:14;;;;;;;3.20;1.60;;;17.80;18.70;;;;;;4994692;28;20050;-84
2023/08/29 08:24:40;;;;;;;3.80;1.98;;;17.90;13.40;;;;;;5002088;28;20042;-84
2023/08/29 08:27:07;;;;;;;1.73;1.50;;;17.80;13.70;;;;;;5001917;28;20042;-85
2023/08/29 08:29:33;;;;;;;;;;;18.00;12.00;;;;;;4993029;28;20456;-84
2023/08/29 08:31:58;;;;;;;2.35;1.25;;;18.00;16.60;;;;;;4994279;28;19944;-84
2023/08/29 08:34:24;;;;;;;1.80;1.15;;;18.10;11.20;;;;;;4993052;28;20116;-83
2023/08/29 08:36:50;;;;;;;2.35;1.23;;;18.20;4.60;;;;;;4963744;28;20042;-84
2023/08/29 08:39:16;;;;;;;2.50;1.52;;;18.20;1.00;;;;;;5001849;28;20057;-85
2023/08/29 08:41:42;;;;;;;3.30;1.38;;;18.30;1.00;;;;;;5006322;28;20054;-84
2023/08/29 08:44:11;;;;;;;2.25;1.90;;;18.30;1.00;;;;;;4997362;28;20046;-87
2023/08/29 08:46:37;;;;;;;1.45;1.30;;;18.40;1.00;;;;;;5000277;28;20046;-88
2023/08/29 08:49:06;;;;;;;1.10;1.00;;;18.50;1.00;;;;;;4991574;28;20058;-88
2023/08/29 08:51:36;;;;;;;1.55;1.45;;;18.60;1.00;;;;;;4995836;28;20120;-90
2023/08/29 08:54:02;;;;;;;1.48;1.38;;;18.70;1.00;;;;;;5004950;28;20053;-90
2023/08/29 08:56:28;;;;;;;2.30;0.98;;;18.80;1.00;;;;;;4993652;28;20046;-84
2023/08/29 08:58:54;;;;;;;2.25;0.90;;;18.80;1.00;;;;;;4993591;28;20456;-95
2023/08/29 09:01:20;;;;;;;2.30;0.90;;;18.80;1.00;;;;;;5008112;28;20049;-91
2023/08/29 09:03:46;;;;;;;1.23;0.93;;;18.80;1.00;;;;;;4964732;28;20038;-90
2023/08/29 09:06:14;;;;;;;1.30;1.10;;;18.80;1.00;;;;;;5004780;28;20052;-89
2023/08/29 09:08:40;;;;;;;0.80;0.80;;;18.80;1.00;;;;;;5004642;28;20050;-88
2023/08/29 09:11:06;;;;;;;1.73;0.93;;;18.70;1.00;;;;;;4974711;28;20404;-88
2023/08/29 09:13:31;;;;;;;1.83;0.93;;;18.60;1.00;;;;;;5007179;28;20392;-90
2023/08/29 09:16:01;;;;;;;1.80;1.27;;;18.50;1.00;;;;;;5001175;28;20049;-88
2023/08/29 09:18:32;;;;;;;1.60;0.90;;;18.40;1.00;;;;;;4993641;28;20038;-89
2023/08/29 09:21:02;;;;;;;3.58;1.30;;;18.50;1.00;;;;;;4991642;28;20045;-88
2023/08/29 09:23:36;;;;;;;2.70;0.90;;;18.60;1.00;;;;;;4990238;28;20062;-89
2023/08/29 09:26:01;;;;;;;0.90;0.90;;;18.60;1.00;;;;;;4999152;28;20046;-87
2023/08/29 09:28:31;;;;;;;1.88;0.80;;;18.70;1.00;;;;;;4992806;28;20053;-87
2023/08/29 09:31:10;;;;;;;1.52;0.65;;;18.90;1.00;;;;;;4980345;28;20042;-89
2023/08/29 09:33:38;;;;;;;1.48;0.80;;;19.00;1.00;;;;;;5011284;28;20385;-88
2023/08/29 09:36:07;;;;;;;1.45;1.23;;;19.10;1.00;;;;;;4991695;28;20038;-88
2023/08/29 09:38:34;;;;;;;1.85;0.90;;;19.10;1.00;;;;;;5006716;28;20042;-87
2023/08/29 09:41:00;;;;;;;1.25;0.80;;;19.00;1.00;;;;;;4992632;28;20111;-89
2023/08/29 09:43:30;;;;;;;2.15;0.63;;;18.90;1.00;;;;;;5003440;28;20066;-86
2023/08/29 09:45:57;;;;;;;0.77;0.77;;;18.80;1.00;;;;;;4997573;28;20046;-87
2023/08/29 09:48:23;;;;;;;1.20;0.68;;;18.70;1.00;;;;;;4998975;28;20085;-89
2023/08/29 09:50:50;;;;;;;1.23;1.13;;;18.60;1.00;;;;;;5004513;28;20488;-91
2023/08/29 09:53:20;;;;;;;1.25;0.80;;;18.60;1.00;;;;;;5001641;28;20054;-90
2023/08/29 09:55:49;;;;;;;0.52;0.52;;;18.60;1.00;;;;;;4998127;28;20046;-90
2023/08/29 09:58:21;;;;;;;0.70;0.70;;;18.60;1.00;;;;;;5004009;28;20064;-89
2023/08/29 10:00:49;;;;;;;6.22;0.90;;;18.50;1.00;;;;;;4978344;28;20092;-90
2023/08/29 10:03:17;;;;;;;1.13;0.73;;;18.50;1.00;;;;;;5005681;28;20050;-90
2023/08/29 10:05:44;;;;;;;1.23;0.73;;;18.40;1.00;;;;;;4991880;28;20061;-88
2023/08/29 10:08:22;;;;;;;0.98;0.63;;;18.40;1.00;;;;;;4981467;28;20120;-86
2023/08/29 10:10:48;;;;;;;1.85;0.70;;;18.40;1.00;;;;;;5002984;28;20046;-86
2023/08/29 10:13:15;;;;;;;1.55;0.82;;;18.50;1.00;;;;;;4999233;28;20050;-87
2023/08/29 10:15:42;;;;;;;3.92;0.98;;;18.50;1.00;;;;;;4996365;28;20101;-85
2023/08/29 10:18:09;;;;;;;2.28;1.05;;;18.60;1.00;;;;;;4971833;28;20177;-86
2023/08/29 10:20:37;;;;;;;1.42;0.65;;;18.60;1.00;;;;;;4993918;28;20117;-87
2023/08/29 10:23:04;;;;;;;1.20;0.90;;;18.60;1.00;;;;;;4977378;28;20059;-86
2023/08/29 10:25:31;;;;;;;1.20;0.95;;;18.70;1.00;;;;;;4992273;28;20050;-87
2023/08/29 10:27:57;;;;;;;1.70;1.00;;;18.70;1.00;;;;;;5002755;28;20049;-87
2023/08/29 10:30:25;;;;;;;2.28;0.88;;;18.70;1.00;;;;;;4974067;28;20046;-87
2023/08/29 10:32:53;;;;;;;1.70;1.00;;;18.70;1.00;;;;;;4974993;28;20084;-87
2023/08/29 10:35:22;;;;;;;2.00;0.90;;;18.80;1.00;;;;;;4996995;28;20050;-87
2023/08/29 10:37:52;;;;;;;2.65;0.90;;;18.80;1.00;;;;;;5010083;28;20505;-87
2023/08/29 10:40:20;;;;;;;0.95;0.90;;;18.80;1.00;;;;;;5017776;28;20049;-87
2023/08/29 10:43:00;;;;;;;1.15;0.80;;;18.80;1.00;;;;;;5047658;28;20411;-84
2023/08/29 10:45:49;;;;;;;2.38;0.70;;;18.80;1.00;;;;;;5021612;28;20442;-89
2023/08/29 10:48:19;;;;;;;1.10;0.90;;;18.80;1.00;;;;;;5032569;28;20121;-93
2023/08/29 10:51:08;;;;;;;1.08;0.90;;;18.70;1.00;;;;;;5031555;28;20057;-85
2023/08/29 10:53:38;;;;;;;0.60;0.60;;;18.80;1.00;;;;;;5020729;28;20046;-84
2023/08/29 10:56:07;;;;;;;0.70;0.70;;;18.80;1.00;;;;;;5020940;28;20050;-85
2023/08/29 10:58:34;;;;;;;1.15;0.80;;;18.80;1.00;;;;;;5043711;28;20087;-84
2023/08/29 11:01:01;;;;;;;0.85;0.73;;;18.90;1.00;;;;;;5025611;28;20079;-83
2023/08/29 11:03:50;;;;;;;1.50;1.00;;;18.90;1.00;;;;;;5021386;28;20092;-86
2023/08/29 11:06:23;;;;;;;0.70;0.70;;;18.90;1.00;;;;;;5013991;28;20044;-85
2023/08/29 11:08:50;;;;;;;2.60;1.17;;;18.90;1.00;;;;;;5018978;28;20079;-87
2023/08/29 11:11:21;;;;;;;4.05;1.40;;;18.90;1.00;;;;;;5018310;28;20041;-86
2023/08/29 11:14:03;;;;;;;2.30;1.20;;;18.80;1.00;;;;;;5009486;28;20450;-84
2023/08/29 11:16:34;;;;;;;2.45;0.90;;;18.80;1.00;;;;;;5018600;28;20043;-82
2023/08/29 11:19:05;;;;;;;1.17;1.08;;;18.70;1.00;;;;;;5023140;28;20043;-84
2023/08/29 11:21:31;;;;;;;0.98;0.68;;;18.60;1.00;;;;;;5020817;28;20041;-84
2023/08/29 11:23:58;;;;;;;1.15;0.90;;;18.50;1.00;;;;;;5017976;28;20053;-84
2023/08/29 11:26:25;;;;;;;1.10;0.90;;;18.40;1.00;;;;;;5034430;28;20040;-84
2023/08/29 11:28:51;;;;;;;2.92;1.13;;;18.40;1.00;;;;;;4995191;28;20073;-84
2023/08/29 11:31:18;;;;;;;2.72;1.10;;;18.30;1.00;;;;;;5033905;28;20098;-84
2023/08/29 11:33:46;;;;;;;1.50;1.20;;;18.20;1.00;;;;;;5027848;28;20081;-82
2023/08/29 11:36:13;;;;;;;2.03;1.33;;;18.20;1.00;;;;;;5025558;28;20115;-84
2023/08/29 11:38:43;;;;;;;1.88;1.20;;;18.20;1.00;;;;;;5046307;28;20407;-83
2023/08/29 11:41:10;;;;;;;1.02;0.93;;;18.30;1.00;;;;;;5050106;28;20052;-85
2023/08/29 11:43:37;;;;;;;0.80;0.80;;;18.30;1.00;;;;;;5050718;28;20084;-85
2023/08/29 11:46:04;;;;;;;1.23;0.80;;;18.30;1.00;;;;;;5040077;28;20458;-83
2023/08/29 11:48:32;;;;;;;2.28;1.10;;;18.30;1.00;;;;;;5040199;28;20116;-85
2023/08/29 11:51:05;;;;;;;2.03;0.90;;;18.30;1.00;;;;;;5017702;28;20045;-84
2023/08/29 11:53:36;;;;;;;1.48;1.00;;;18.30;1.00;;;;;;5036941;28;20056;-84
2023/08/29 11:56:11;;;;;;;2.50;0.88;;;18.30;1.00;;;;;;5032611;28;20060;-84
2023/08/29 11:58:38;;;;;;;1.23;0.77;;;18.30;1.00;;;;;;5018457;28;20050;-84
2023/08/29 12:01:05;;;;;;;2.55;1.05;;;18.30;1.00;;;;;;5015506;28;20045;-84
2023/08/29 12:03:36;;;;;;;1.90;0.88;;;18.20;1.00;;;;;;5015748;28;20041;-84
2023/08/29 12:06:04;;;;;;;1.17;0.77;;;18.20;1.00;;;;;;5031630;28;20057;-83
2023/08/29 12:08:39;;;;;;;1.10;1.00;;;18.20;1.00;;;;;;5031174;28;20046;-84
2023/08/29 12:11:06;;;;;;;1.50;0.82;;;18.20;1.00;;;;;;5020000;28;20513;-85
2023/08/29 12:13:34;;;;;;;3.83;1.20;;;18.20;1.00;;;;;;5023269;28;20045;-85
2023/08/29 12:16:00;;;;;;;1.15;0.90;;;18.20;1.00;;;;;;5024394;28;20045;-86
2023/08/29 12:18:26;;;;;;;1.23;1.10;;;18.20;1.00;;;;;;4999697;28;20111;-86
2023/08/29 12:21:08;;;;;;;1.10;1.00;;;18.20;1.00;;;;;;4999174;28;20056;-86
2023/08/29 12:23:34;;;;;;;2.10;1.30;;;18.20;1.00;;;;;;4999455;28;20476;-86
2023/08/29 12:26:00;;;;;;;1.50;1.00;;;18.20;1.00;;;;;;5015393;28;20083;-86
2023/08/29 12:28:25;;;;;;;2.22;0.93;;;17.50;1.00;;;;;;4999541;28;20045;-86
2023/08/29 12:30:54;;;;;;;1.17;1.10;;;18.30;1.00;;;;;;4999050;28;20373;-86
2023/08/29 12:33:21;;;;;;;0.75;0.75;;;18.20;1.00;;;;;;5015607;28;20045;-86
2023/08/29 12:35:47;;;;;;;1.33;0.85;;;18.20;1.00;;;;;;5015319;28;20046;-85
2023/08/29 12:38:13;;;;;;;3.17;1.08;;;18.30;1.00;;;;;;5002203;28;20135;-85
2023/08/29 12:40:39;;;;;;;2.13;1.05;;;18.30;1.00;;;;;;5015814;28;20088;-84
2023/08/29 12:43:06;;;;;;;3.05;1.33;;;18.30;1.00;;;;;;5036415;28;20527;-84
2023/08/29 12:45:32;;;;;;;3.10;1.25;;;18.30;1.00;;;;;;5015024;28;20495;-86
2023/08/29 12:47:58;;;;;;;0.80;0.80;;;18.30;1.00;;;;;;5032402;28;20088;-83
2023/08/29 12:50:24;;;;;;;2.05;1.45;;;18.30;1.00;;;;;;5018168;28;20095;-83
2023/08/29 12:52:49;;;;;;;1.52;1.42;;;18.20;1.00;;;;;;5052495;28;20132;-83